createdAt,value
2023-04-16T00:02:18.679Z,95099.22
2023-04-16T00:04:46.796Z,95095.81
2023-04-16T00:07:15.316Z,95094.56
2023-04-16T00:09:43.363Z,95102.41
2023-04-16T00:12:13.110Z,95099.78
2023-04-16T00:14:42.622Z,95099.78
2023-04-16T00:17:11.385Z,95101.38
2023-04-16T00:19:40.089Z,95096.97
2023-04-16T00:22:08.738Z,95100.34
2023-04-16T00:24:36.801Z,95102.56
2023-04-16T00:27:05.273Z,95096.75
2023-04-16T00:29:35.817Z,95092.97
2023-04-16T00:32:04.215Z,95098.34
2023-04-16T00:34:32.255Z,95087.88
2023-04-16T00:37:00.614Z,95089.25
2023-04-16T00:39:29.215Z,95088.25
2023-04-16T00:41:57.870Z,95087.44
2023-04-16T00:44:26.181Z,95093.69
2023-04-16T00:46:58.148Z,95090.84
2023-04-16T00:49:27.868Z,95093.69
2023-04-16T00:51:58.383Z,95093.91
2023-04-16T00:54:27.669Z,95092.09
2023-04-16T00:56:58.265Z,95097.78
2023-04-16T00:59:28.806Z,95091.94
2023-04-16T01:01:58.342Z,95092.56
2023-04-16T01:04:27.251Z,95090.34
2023-04-16T01:06:55.410Z,95092.38
2023-04-16T01:09:23.652Z,95089.34
2023-04-16T01:11:52.591Z,95094.78
2023-04-16T01:14:20.993Z,95091.94
2023-04-16T01:16:49.543Z,95098.19
2023-04-16T01:19:19.599Z,95088.53
2023-04-16T01:21:49.193Z,95095.59
2023-04-16T01:24:17.436Z,95098.41
2023-04-16T01:26:45.532Z,95100.25
2023-04-16T01:29:13.945Z,95102.63
2023-04-16T01:31:41.976Z,95101.03
2023-04-16T01:34:30.819Z,95102.06
2023-04-16T01:37:01.280Z,95112.28
2023-04-16T01:39:29.606Z,95116.28
2023-04-16T01:41:58.806Z,95106.50
2023-04-16T01:44:26.995Z,95108.09
2023-04-16T01:46:55.269Z,95114.13
2023-04-16T01:49:24.113Z,95116.94
2023-04-16T01:51:53.667Z,95114.13
2023-04-16T01:54:23.374Z,95119.13
2023-04-16T01:56:51.600Z,95113.88
2023-04-16T01:59:20.833Z,95124.34
2023-04-16T02:01:49.271Z,95127.75
2023-04-16T02:04:17.788Z,95123.94
2023-04-16T02:06:46.202Z,95123.94
2023-04-16T02:09:16.205Z,95122.31
2023-04-16T02:11:46.504Z,95119.91
2023-04-16T02:14:14.714Z,95120.72
2023-04-16T02:16:43.836Z,95118.72
2023-04-16T02:19:27.780Z,95120.31
2023-04-16T02:21:56.733Z,95117.69
2023-04-16T02:24:24.781Z,95120.06
2023-04-16T02:26:54.596Z,95124.28
2023-04-16T02:29:22.772Z,95120.31
2023-04-16T02:32:02.151Z,95116.88
2023-04-16T02:34:33.659Z,95115.06
2023-04-16T02:37:02.122Z,95113.81
2023-04-16T02:39:30.788Z,95121.44
2023-04-16T02:42:02.834Z,95123.50
2023-04-16T02:44:31.146Z,95123.50
2023-04-16T02:46:59.667Z,95118.47
2023-04-16T02:49:28.137Z,95123.72
2023-04-16T02:51:56.449Z,95119.06
2023-04-16T02:54:24.603Z,95118.84
2023-04-16T02:56:53.207Z,95124.66
2023-04-16T02:59:22.755Z,95118.41
2023-04-16T03:01:51.255Z,95121.44
2023-04-16T03:04:19.847Z,95128.38
2023-04-16T03:06:48.387Z,95134.19
2023-04-16T03:09:17.375Z,95133.59
2023-04-16T03:11:45.497Z,95138.59
2023-04-16T03:14:13.590Z,95136.00
2023-04-16T03:16:44.264Z,95139.41
2023-04-16T03:19:13.115Z,95145.84
2023-04-16T03:21:41.127Z,95140.63
2023-04-16T03:24:09.385Z,95142.03
2023-04-16T03:26:37.937Z,95149.88
2023-04-16T03:29:06.485Z,95144.63
2023-04-16T03:31:35.097Z,95143.22
2023-04-16T03:34:04.869Z,95149.88
2023-04-16T03:36:33.370Z,95147.47
2023-04-16T03:39:01.840Z,95148.84
2023-04-16T03:41:30.303Z,95144.06
2023-04-16T03:43:59.242Z,95146.47
2023-04-16T03:46:28.270Z,95153.50
2023-04-16T03:48:56.796Z,95150.28
2023-04-16T03:51:27.108Z,95151.69
2023-04-16T03:53:55.251Z,95150.50
2023-04-16T03:56:24.774Z,95158.56
2023-04-16T03:58:54.482Z,95160.81
2023-04-16T04:01:22.524Z,95153.78
2023-04-16T04:03:51.046Z,95164.25
2023-04-16T04:06:19.617Z,95162.44
2023-04-16T04:08:52.509Z,95158.78
2023-04-16T04:11:20.801Z,95165.03
2023-04-16T04:13:49.134Z,95172.88
2023-04-16T04:16:17.776Z,95168.66
2023-04-16T04:18:46.609Z,95165.63
2023-04-16T04:21:14.945Z,95167.06
2023-04-16T04:23:43.686Z,95177.50
2023-04-16T04:26:15.221Z,95175.34
2023-04-16T04:28:43.358Z,95181.38
2023-04-16T04:31:11.667Z,95176.94
2023-04-16T04:33:40.270Z,95181.94
2023-04-16T04:36:08.977Z,95181.59
2023-04-16T04:38:37.653Z,95186.81
2023-04-16T04:41:06.664Z,95188.19
2023-04-16T04:43:39.718Z,95187.63
2023-04-16T04:46:08.214Z,95190.00
2023-04-16T04:48:36.968Z,95193.66
2023-04-16T04:51:05.604Z,95197.06
2023-04-16T04:53:34.197Z,95190.81
2023-04-16T04:56:12.415Z,95193.44
2023-04-16T04:58:43.824Z,95197.22
2023-04-16T05:01:12.372Z,95194.41
2023-04-16T05:03:40.869Z,95200.41
2023-04-16T05:06:09.160Z,95202.41
2023-04-16T05:08:37.532Z,95201.59
2023-04-16T05:11:06.232Z,95199.56
2023-04-16T05:13:34.665Z,95208.00
2023-04-16T05:16:04.721Z,95206.78
2023-04-16T05:18:33.641Z,95211.41
2023-04-16T05:21:01.741Z,95214.81
2023-04-16T05:23:29.749Z,95219.66
2023-04-16T05:25:58.084Z,95214.19
2023-04-16T05:28:26.288Z,95212.75
2023-04-16T05:30:54.577Z,95214.78
2023-04-16T05:33:24.206Z,95226.03
2023-04-16T05:35:52.513Z,95225.22
2023-04-16T05:38:21.323Z,95227.06
2023-04-16T05:40:49.618Z,95230.47
2023-04-16T05:43:19.252Z,95238.13
2023-04-16T05:45:47.339Z,95229.25
2023-04-16T05:48:16.172Z,95231.25
2023-04-16T05:50:46.821Z,95241.69
2023-04-16T05:53:15.361Z,95238.88
2023-04-16T05:55:43.500Z,95239.84
2023-04-16T05:58:12.308Z,95233.78
2023-04-16T06:00:41.221Z,95235.19
2023-04-16T06:03:09.704Z,95225.88
2023-04-16T06:05:38.452Z,95236.94
2023-04-16T06:08:08.359Z,95247.41
2023-04-16T06:10:37.250Z,95242.97
2023-04-16T06:13:05.531Z,95247.75
2023-04-16T06:15:34.024Z,95244.72
2023-04-16T06:18:02.645Z,95245.53
2023-04-16T06:20:31.438Z,95240.06
2023-04-16T06:22:59.723Z,95236.66
2023-04-16T06:25:29.308Z,95242.66
2023-04-16T06:27:57.456Z,95247.44
2023-04-16T06:30:26.080Z,95245.84
2023-04-16T06:32:55.373Z,95248.25
2023-04-16T06:35:23.507Z,95264.81
2023-04-16T06:37:51.922Z,95255.97
2023-04-16T06:40:20.161Z,95248.06
2023-04-16T06:42:49.605Z,95249.88
2023-04-16T06:45:18.964Z,95254.22
2023-04-16T06:47:48.101Z,95254.81
2023-04-16T06:50:16.745Z,95259.63
2023-04-16T06:52:45.151Z,95254.53
2023-04-16T06:55:13.392Z,95263.34
2023-04-16T06:57:41.753Z,95263.75
2023-04-16T07:00:13.467Z,95263.75
2023-04-16T07:02:41.747Z,95263.69
2023-04-16T07:05:10.572Z,95270.13
2023-04-16T07:07:40.012Z,95264.66
2023-04-16T07:10:09.378Z,95264.44
2023-04-16T07:12:37.852Z,95271.28
2023-04-16T07:15:07.275Z,95273.03
2023-04-16T07:17:37.394Z,95279.22
2023-04-16T07:20:06.566Z,95268.31
2023-04-16T07:22:34.680Z,95277.78
2023-04-16T07:25:03.001Z,95268.44
2023-04-16T07:27:31.770Z,95270.19
2023-04-16T07:30:00.114Z,95269.75
2023-04-16T07:32:28.751Z,95274.53
2023-04-16T07:34:58.477Z,95279.72
2023-04-16T07:37:27.140Z,95279.41
2023-04-16T07:39:57.923Z,95280.94
2023-04-16T07:42:26.333Z,95274.00
2023-04-16T07:44:56.760Z,95284.22
2023-04-16T07:47:26.548Z,95278.50
2023-04-16T07:49:54.711Z,95291.31
2023-04-16T07:52:24.927Z,95287.47
2023-04-16T07:54:53.218Z,95285.78
2023-04-16T07:57:22.193Z,95291.63
2023-04-16T07:59:50.635Z,95294.72
2023-04-16T08:02:18.885Z,95294.06
2023-04-16T08:04:47.125Z,95304.81
2023-04-16T08:07:15.568Z,95301.03
2023-04-16T08:09:54.472Z,95299.09
2023-04-16T08:12:23.078Z,95315.88
2023-04-16T08:14:51.547Z,95304.81
2023-04-16T08:17:19.592Z,95310.06
2023-04-16T08:19:48.512Z,95305.13
2023-04-16T08:22:16.773Z,95311.97
2023-04-16T08:24:44.934Z,95311.03
2023-04-16T08:27:19.961Z,95327.59
2023-04-16T08:29:49.063Z,95313.44
2023-04-16T08:32:18.354Z,95319.81
2023-04-16T08:34:46.733Z,95314.22
2023-04-16T08:37:14.802Z,95321.97
2023-04-16T08:39:43.279Z,95328.84
2023-04-16T08:42:23.068Z,95320.94
2023-04-16T08:45:00.034Z,95324.88
2023-04-16T08:47:33.031Z,95331.47
2023-04-16T08:50:02.476Z,95328.94
2023-04-16T08:52:32.661Z,95328.94
2023-04-16T08:55:10.080Z,95324.22
2023-04-16T08:57:45.076Z,95333.56
2023-04-16T09:00:14.708Z,95327.69
2023-04-16T09:02:44.253Z,95327.22
2023-04-16T09:05:18.163Z,95329.44
2023-04-16T09:07:47.875Z,95329.63
2023-04-16T09:10:17.361Z,95333.94
2023-04-16T09:12:47.741Z,95340.75
2023-04-16T09:15:16.416Z,95335.91
2023-04-16T09:17:45.274Z,95337.97
2023-04-16T09:20:13.960Z,95337.34
2023-04-16T09:22:42.526Z,95345.25
2023-04-16T09:25:11.341Z,95338.94
2023-04-16T09:27:40.148Z,95345.00
2023-04-16T09:30:24.213Z,95337.72
2023-04-16T09:32:54.019Z,95344.41
2023-04-16T09:35:22.841Z,95349.94
2023-04-16T09:37:59.325Z,95340.09
2023-04-16T09:40:30.929Z,95339.13
2023-04-16T09:43:00.767Z,95338.28
2023-04-16T09:45:34.152Z,95339.50
2023-04-16T09:48:07.054Z,95332.75
2023-04-16T09:50:35.925Z,95332.72
2023-04-16T09:53:05.552Z,95339.47
2023-04-16T09:55:34.542Z,95330.34
2023-04-16T09:58:03.235Z,95338.69
2023-04-16T10:00:33.636Z,95347.31
2023-04-16T10:03:06.318Z,95346.63
2023-04-16T10:05:35.254Z,95360.59
2023-04-16T10:08:03.565Z,95356.94
2023-04-16T10:10:31.725Z,95363.13
2023-04-16T10:13:00.717Z,95355.38
2023-04-16T10:15:29.648Z,95357.78
2023-04-16T10:18:00.886Z,95364.19
2023-04-16T10:20:29.504Z,95364.31
2023-04-16T10:23:00.140Z,95368.34
2023-04-16T10:25:31.237Z,95367.97
2023-04-16T10:28:00.652Z,95369.16
2023-04-16T10:30:29.553Z,95366.19
2023-04-16T10:33:00.676Z,95368.50
2023-04-16T10:35:29.571Z,95369.19
2023-04-16T10:37:58.570Z,95362.19
2023-04-16T10:40:29.552Z,95363.97
2023-04-16T10:42:59.305Z,95365.56
2023-04-16T10:45:38.360Z,95371.16
2023-04-16T10:48:10.169Z,95372.53
2023-04-16T10:50:38.482Z,95363.66
2023-04-16T10:53:21.680Z,95365.00
2023-04-16T10:56:15.502Z,95362.53
2023-04-16T10:58:44.619Z,95359.50
2023-04-16T11:01:16.567Z,95360.06
2023-04-16T11:03:49.493Z,95369.59
2023-04-16T11:06:25.014Z,95369.19
2023-04-16T11:08:55.380Z,95363.13
2023-04-16T11:11:24.762Z,95372.88
2023-04-16T11:13:57.956Z,95368.88
2023-04-16T11:16:28.030Z,95368.09
2023-04-16T11:18:58.249Z,95373.81
2023-04-16T11:21:28.676Z,95374.63
2023-04-16T11:24:01.093Z,95372.13
2023-04-16T11:26:31.734Z,95376.84
2023-04-16T11:29:01.059Z,95371.72
2023-04-16T11:31:29.664Z,95371.06
2023-04-16T11:34:00.570Z,95375.63
2023-04-16T11:36:31.639Z,95372.50
2023-04-16T11:39:04.982Z,95370.66
2023-04-16T11:41:33.387Z,95375.13
2023-04-16T11:44:02.616Z,95374.91
2023-04-16T11:46:42.387Z,95374.44
2023-04-16T11:49:13.458Z,95377.78
2023-04-16T11:51:42.644Z,95381.19
2023-04-16T11:54:19.429Z,95381.19
2023-04-16T11:56:50.403Z,95379.56
2023-04-16T11:59:22.927Z,95385.53
2023-04-16T12:01:53.510Z,95390.06
2023-04-16T12:04:25.553Z,95390.94
2023-04-16T12:07:09.705Z,95382.13
2023-04-16T12:09:40.676Z,95389.47
2023-04-16T12:12:28.139Z,95382.13
2023-04-16T12:14:56.886Z,95380.41
2023-04-16T12:17:25.540Z,95388.56
2023-04-16T12:19:58.875Z,95390.03
2023-04-16T12:22:31.504Z,95392.44
2023-04-16T12:25:00.848Z,95394.53
2023-04-16T12:27:43.156Z,95395.16
2023-04-16T12:30:12.503Z,95394.84
2023-04-16T12:32:44.092Z,95398.50
2023-04-16T12:35:14.651Z,95399.72
2023-04-16T12:37:42.976Z,95399.56
2023-04-16T12:40:12.321Z,95404.03
2023-04-16T12:42:40.861Z,95399.56
2023-04-16T12:45:09.551Z,95399.31
2023-04-16T12:47:38.287Z,95402.25
2023-04-16T12:50:07.228Z,95408.88
2023-04-16T12:52:37.574Z,95411.63
2023-04-16T12:55:06.864Z,95406.41
2023-04-16T12:57:35.485Z,95402.13
2023-04-16T13:00:04.512Z,95402.81
2023-04-16T13:02:32.918Z,95400.75
2023-04-16T13:05:01.507Z,95400.34
2023-04-16T13:07:32.220Z,95395.13
2023-04-16T13:10:02.799Z,95392.97
2023-04-16T13:12:32.651Z,95390.28
2023-04-16T13:15:00.960Z,95397.63
2023-04-16T13:17:29.354Z,95398.50
2023-04-16T13:19:57.408Z,95396.75
2023-04-16T13:22:25.822Z,95389.00
2023-04-16T13:24:54.880Z,95395.31
2023-04-16T13:27:24.287Z,95395.56
2023-04-16T13:29:52.377Z,95402.09
2023-04-16T13:32:20.937Z,95397.25
2023-04-16T13:34:49.257Z,95397.81
2023-04-16T13:37:17.402Z,95407.00
2023-04-16T13:39:46.836Z,95402.44
2023-04-16T13:42:15.796Z,95403.38
2023-04-16T13:44:49.582Z,95411.00
2023-04-16T13:47:18.714Z,95408.72
2023-04-16T13:49:47.707Z,95405.84
2023-04-16T13:52:17.170Z,95413.56
2023-04-16T13:54:45.374Z,95416.34
2023-04-16T13:57:21.457Z,95408.78
2023-04-16T13:59:51.296Z,95412.91
2023-04-16T14:02:20.225Z,95410.75
2023-04-16T14:04:48.686Z,95413.59
2023-04-16T14:07:17.394Z,95411.44
2023-04-16T14:09:45.635Z,95416.91
2023-04-16T14:12:13.750Z,95414.34
2023-04-16T14:14:42.401Z,95415.81
2023-04-16T14:17:12.689Z,95414.91
2023-04-16T14:19:41.185Z,95417.44
2023-04-16T14:22:09.709Z,95419.97
2023-04-16T14:24:39.038Z,95418.34
2023-04-16T14:27:07.454Z,95417.09
2023-04-16T14:29:36.383Z,95416.41
2023-04-16T14:32:06.778Z,95415.50
2023-04-16T14:34:37.254Z,95417.47
2023-04-16T14:37:06.444Z,95412.41
2023-04-16T14:39:34.761Z,95409.56
2023-04-16T14:42:03.905Z,95413.22
2023-04-16T14:44:32.656Z,95408.72
2023-04-16T14:47:00.816Z,95407.41
2023-04-16T14:49:29.927Z,95413.66
2023-04-16T14:51:59.507Z,95410.63
2023-04-16T14:54:28.745Z,95417.69
2023-04-16T14:56:56.886Z,95424.44
2023-04-16T14:59:26.330Z,95427.75
2023-04-16T15:01:56.889Z,95418.09
2023-04-16T15:04:26.370Z,95428.25
2023-04-16T15:06:59.190Z,95423.22
2023-04-16T15:09:28.681Z,95424.81
2023-04-16T15:11:57.411Z,95433.06
2023-04-16T15:14:26.168Z,95426.56
2023-04-16T15:16:54.730Z,95435.78
2023-04-16T15:19:23.893Z,95428.06
2023-04-16T15:21:52.004Z,95427.56
2023-04-16T15:24:20.726Z,95433.41
2023-04-16T15:26:50.473Z,95430.63
2023-04-16T15:29:19.264Z,95422.31
2023-04-16T15:31:49.000Z,95425.13
2023-04-16T15:34:17.987Z,95428.59
2023-04-16T15:36:46.611Z,95434.63
2023-04-16T15:39:15.877Z,95428.75
2023-04-16T15:41:57.494Z,95430.66
2023-04-16T15:44:31.988Z,95430.28
2023-04-16T15:47:01.210Z,95428.34
2023-04-16T15:49:30.362Z,95431.94
2023-04-16T15:51:59.639Z,95435.19
2023-04-16T15:54:28.071Z,95436.69
2023-04-16T15:56:56.852Z,95441.69
2023-04-16T15:59:26.268Z,95437.56
2023-04-16T16:01:55.961Z,95437.47
2023-04-16T16:04:26.520Z,95433.50
2023-04-16T16:06:55.996Z,95443.91
2023-04-16T16:09:26.821Z,95434.06
2023-04-16T16:11:56.026Z,95439.16
2023-04-16T16:14:24.264Z,95443.94
2023-04-16T16:16:52.259Z,95436.66
2023-04-16T16:19:22.379Z,95445.28
2023-04-16T16:21:50.538Z,95447.84
2023-04-16T16:24:19.102Z,95447.91
2023-04-16T16:26:47.083Z,95449.63
2023-04-16T16:29:15.500Z,95447.31
2023-04-16T16:31:43.640Z,95448.31
2023-04-16T16:34:19.986Z,95445.88
2023-04-16T16:36:50.696Z,95453.56
2023-04-16T16:39:22.423Z,95447.31
2023-04-16T16:41:52.399Z,95443.66
2023-04-16T16:44:21.177Z,95441.31
2023-04-16T16:46:50.435Z,95447.16
2023-04-16T16:49:18.842Z,95448.38
2023-04-16T16:51:48.806Z,95447.28
2023-04-16T16:54:18.400Z,95452.53
2023-04-16T16:56:47.700Z,95450.31
2023-04-16T16:59:15.754Z,95457.59
2023-04-16T17:01:44.160Z,95460.13
2023-04-16T17:04:12.336Z,95451.44
2023-04-16T17:06:40.587Z,95456.28
2023-04-16T17:09:09.796Z,95454.16
2023-04-16T17:11:40.188Z,95451.97
2023-04-16T17:14:09.055Z,95460.28
2023-04-16T17:16:38.004Z,95456.63
2023-04-16T17:19:06.626Z,95459.34
2023-04-16T17:21:34.882Z,95463.66
2023-04-16T17:24:03.943Z,95461.91
2023-04-16T17:26:32.231Z,95459.94
2023-04-16T17:29:02.117Z,95451.13
2023-04-16T17:31:30.131Z,95460.03
2023-04-16T17:33:59.488Z,95460.97
2023-04-16T17:36:28.526Z,95462.19
2023-04-16T17:38:56.708Z,95474.94
2023-04-16T17:41:24.921Z,95465.66
2023-04-16T17:43:53.733Z,95473.03
2023-04-16T17:46:23.572Z,95473.66
2023-04-16T17:48:52.263Z,95488.47
2023-04-16T17:51:20.715Z,95486.06
2023-04-16T17:53:49.468Z,95481.25
2023-04-16T17:56:19.400Z,95487.88
2023-04-16T17:58:47.809Z,95485.09
2023-04-16T18:01:16.510Z,95499.13
2023-04-16T18:03:46.507Z,95499.97
2023-04-16T18:06:14.946Z,95502.22
2023-04-16T18:08:43.144Z,95497.63
2023-04-16T18:11:11.427Z,95500.81
2023-04-16T18:13:40.185Z,95508.88
2023-04-16T18:16:16.777Z,95509.84
2023-04-16T18:18:47.624Z,95512.44
2023-04-16T18:21:15.869Z,95520.25
2023-04-16T18:23:44.451Z,95522.28
2023-04-16T18:26:12.862Z,95521.22
2023-04-16T18:28:41.054Z,95526.88
2023-04-16T18:31:09.357Z,95528.53
2023-04-16T18:33:55.737Z,95532.34
2023-04-16T18:36:27.847Z,95531.03
2023-04-16T18:39:15.853Z,95535.47
2023-04-16T18:41:48.069Z,95538.44
2023-04-16T18:44:17.977Z,95535.06
2023-04-16T18:46:46.422Z,95536.59
2023-04-16T18:49:15.005Z,95544.06
2023-04-16T18:51:45.167Z,95540.66
2023-04-16T18:54:13.880Z,95543.69
2023-04-16T18:56:42.182Z,95548.34
2023-04-16T18:59:10.551Z,95544.72
2023-04-16T19:01:39.168Z,95559.63
2023-04-16T19:04:07.789Z,95552.94
2023-04-16T19:06:36.544Z,95560.13
2023-04-16T19:09:06.781Z,95559.47
2023-04-16T19:11:35.736Z,95561.66
2023-04-16T19:14:05.296Z,95568.09
2023-04-16T19:16:33.461Z,95566.47
2023-04-16T19:19:01.961Z,95570.53
2023-04-16T19:21:30.164Z,95569.84
2023-04-16T19:23:59.601Z,95569.78
2023-04-16T19:26:29.779Z,95571.25
2023-04-16T19:28:58.091Z,95580.59
2023-04-16T19:31:27.890Z,95579.13
2023-04-16T19:33:56.327Z,95578.09
2023-04-16T19:36:25.110Z,95572.66
2023-04-16T19:38:53.428Z,95580.25
2023-04-16T19:41:21.622Z,95582.66
2023-04-16T19:43:51.475Z,95581.69
2023-04-16T19:46:19.960Z,95585.16
2023-04-16T19:48:48.871Z,95582.09
2023-04-16T19:51:16.972Z,95583.19
2023-04-16T19:53:46.851Z,95584.94
2023-04-16T19:56:15.931Z,95582.47
2023-04-16T19:58:44.113Z,95583.63
2023-04-16T20:01:13.567Z,95573.34
2023-04-16T20:03:42.344Z,95582.75
2023-04-16T20:06:10.562Z,95587.78
2023-04-16T20:08:38.615Z,95585.88
2023-04-16T20:11:08.615Z,95588.63
2023-04-16T20:13:37.974Z,95586.13
2023-04-16T20:16:09.352Z,95593.22
2023-04-16T20:18:41.548Z,95594.19
2023-04-16T20:21:10.090Z,95586.53
2023-04-16T20:23:38.604Z,95584.47
2023-04-16T20:26:08.056Z,95585.53
2023-04-16T20:28:36.297Z,95578.66
2023-04-16T20:31:05.211Z,95586.84
2023-04-16T20:33:33.427Z,95587.91
2023-04-16T20:36:03.246Z,95571.56
2023-04-16T20:38:32.693Z,95570.91
2023-04-16T20:41:09.912Z,95581.78
2023-04-16T20:43:41.116Z,95578.53
2023-04-16T20:46:10.963Z,95576.91
2023-04-16T20:48:40.027Z,95573.31
2023-04-16T20:51:10.674Z,95568.88
2023-04-16T20:53:39.021Z,95574.91
2023-04-16T20:56:09.136Z,95573.66
2023-04-16T20:58:37.373Z,95572.44
2023-04-16T21:01:06.410Z,95582.34
2023-04-16T21:03:35.159Z,95570.47
2023-04-16T21:06:03.534Z,95575.94
2023-04-16T21:08:32.932Z,95573.50
2023-04-16T21:11:01.040Z,95573.53
2023-04-16T21:13:29.442Z,95573.97
2023-04-16T21:15:57.753Z,95571.97
2023-04-16T21:18:26.245Z,95573.19
2023-04-16T21:20:54.348Z,95576.44
2023-04-16T21:23:22.676Z,95581.88
2023-04-16T21:25:52.278Z,95579.47
2023-04-16T21:28:20.638Z,95584.09
2023-04-16T21:30:52.706Z,95587.94
2023-04-16T21:33:20.868Z,95587.16
2023-04-16T21:35:52.971Z,95581.69
2023-04-16T21:38:21.722Z,95582.72
2023-04-16T21:40:54.058Z,95577.47
2023-04-16T21:43:22.328Z,95578.28
2023-04-16T21:45:50.501Z,95583.31
2023-04-16T21:48:18.585Z,95584.09
2023-04-16T21:50:47.313Z,95585.91
2023-04-16T21:53:15.325Z,95588.16
2023-04-16T21:55:43.465Z,95577.94
2023-04-16T21:58:12.741Z,95585.81
2023-04-16T22:03:52.211Z,95593.47
2023-04-16T22:06:20.989Z,95586.63
2023-04-16T22:08:49.833Z,95583.41
2023-04-16T22:11:18.039Z,95581.00
2023-04-16T22:13:47.933Z,95577.34
2023-04-16T22:16:16.575Z,95584.41
2023-04-16T22:18:45.443Z,95588.63
2023-04-16T22:21:13.655Z,95581.78
2023-04-16T22:23:42.247Z,95578.59
2023-04-16T22:26:10.468Z,95575.16
2023-04-16T22:28:38.456Z,95574.38
2023-04-16T22:31:08.284Z,95573.56
2023-04-16T22:33:36.749Z,95575.56
2023-04-16T22:36:05.699Z,95576.56
2023-04-16T22:38:33.840Z,95568.72
2023-04-16T22:41:02.459Z,95570.53
2023-04-16T22:43:30.553Z,95569.53
2023-04-16T22:46:04.899Z,95574.38
2023-04-16T22:48:36.343Z,95567.94
2023-04-16T22:51:05.645Z,95563.13
2023-04-16T22:53:34.875Z,95568.59
2023-04-16T22:56:02.923Z,95566.38
2023-04-16T22:58:31.132Z,95573.03
2023-04-16T23:00:59.563Z,95571.03
2023-04-16T23:03:28.626Z,95573.22
2023-04-16T23:05:58.165Z,95575.69
2023-04-16T23:08:26.146Z,95573.06
2023-04-16T23:10:54.142Z,95574.66
2023-04-16T23:13:22.854Z,95573.06
2023-04-16T23:15:51.613Z,95573.06
2023-04-16T23:18:19.632Z,95569.81
2023-04-16T23:20:52.313Z,95562.19
2023-04-16T23:23:21.934Z,95565.00
2023-04-16T23:25:52.815Z,95560.38
2023-04-16T23:28:20.826Z,95567.22
2023-04-16T23:30:53.417Z,95563.81
2023-04-16T23:33:22.764Z,95566.63
2023-04-16T23:35:51.132Z,95564.81
2023-04-16T23:38:19.046Z,95557.19
2023-04-16T23:40:49.215Z,95563.41
2023-04-16T23:43:17.702Z,95560.97
2023-04-16T23:45:46.148Z,95566.63
2023-04-16T23:48:14.495Z,95563.44
2023-04-16T23:50:42.469Z,95569.03
2023-04-16T23:53:11.060Z,95561.03
2023-04-16T23:55:40.160Z,95560.00
2023-04-16T23:58:09.730Z,95569.84
